sensor_id;sensor_type;location;lat;lon;timestamp;pressure;altitude;pressure_sealevel;temperature;humidity
75231;BME280;63814;50.118;8.714;2022-11-21T00:00:06;99191.28;;;4.73;86.09
75231;BME280;63814;50.118;8.714;2022-11-21T00:02:33;99180.91;;;4.73;85.63
75231;BME280;63814;50.118;8.714;2022-11-21T00:04:59;99191.97;;;4.77;85.07
75231;BME280;63814;50.118;8.714;2022-11-21T00:07:26;99180.59;;;4.80;85.34
75231;BME280;63814;50.118;8.714;2022-11-21T00:09:52;99170.22;;;4.80;84.95
75231;BME280;63814;50.118;8.714;2022-11-21T00:12:19;99171.88;;;4.81;84.47
75231;BME280;63814;50.118;8.714;2022-11-21T00:14:45;99176.94;;;4.84;84.08
75231;BME280;63814;50.118;8.714;2022-11-21T00:17:13;99179.31;;;4.88;84.16
75231;BME280;63814;50.118;8.714;2022-11-21T00:19:39;99175.09;;;4.86;83.57
75231;BME280;63814;50.118;8.714;2022-11-21T00:22:06;99169.91;;;4.86;82.57
75231;BME280;63814;50.118;8.714;2022-11-21T00:24:33;99166.78;;;4.79;83.28
75231;BME280;63814;50.118;8.714;2022-11-21T00:26:59;99172.81;;;4.80;83.16
75231;BME280;63814;50.118;8.714;2022-11-21T00:29:25;99175.56;;;4.76;83.11
75231;BME280;63814;50.118;8.714;2022-11-21T00:31:52;99167.72;;;4.78;82.41
75231;BME280;63814;50.118;8.714;2022-11-21T00:34:20;99174.72;;;4.76;83.08
75231;BME280;63814;50.118;8.714;2022-11-21T00:36:47;99157.03;;;4.67;82.90
75231;BME280;63814;50.118;8.714;2022-11-21T00:39:13;99161.97;;;4.71;82.98
75231;BME280;63814;50.118;8.714;2022-11-21T00:41:40;99163.75;;;4.71;82.72
75231;BME280;63814;50.118;8.714;2022-11-21T00:44:06;99158.06;;;4.62;82.86
75231;BME280;63814;50.118;8.714;2022-11-21T00:46:32;99165.66;;;4.67;83.40
75231;BME280;63814;50.118;8.714;2022-11-21T00:48:59;99160.47;;;4.67;83.21
75231;BME280;63814;50.118;8.714;2022-11-21T00:51:27;99162.97;;;4.69;83.21
75231;BME280;63814;50.118;8.714;2022-11-21T00:53:54;99166.41;;;4.69;82.92
75231;BME280;63814;50.118;8.714;2022-11-21T00:56:20;99170.53;;;4.73;83.36
75231;BME280;63814;50.118;8.714;2022-11-21T00:58:47;99165.19;;;4.76;82.74
75231;BME280;63814;50.118;8.714;2022-11-21T01:01:14;99168.72;;;4.75;82.78
75231;BME280;63814;50.118;8.714;2022-11-21T01:03:41;99174.03;;;4.72;82.85
75231;BME280;63814;50.118;8.714;2022-11-21T01:06:10;99154.78;;;4.76;82.36
75231;BME280;63814;50.118;8.714;2022-11-21T01:08:40;99160.59;;;4.64;83.12
75231;BME280;63814;50.118;8.714;2022-11-21T01:11:08;99152.44;;;4.72;82.85
75231;BME280;63814;50.118;8.714;2022-11-21T01:13:35;99153.25;;;4.72;82.68
75231;BME280;63814;50.118;8.714;2022-11-21T01:16:03;99142.88;;;4.72;82.46
75231;BME280;63814;50.118;8.714;2022-11-21T01:18:30;99156.47;;;4.77;82.24
75231;BME280;63814;50.118;8.714;2022-11-21T01:20:58;99153.94;;;4.76;83.15
75231;BME280;63814;50.118;8.714;2022-11-21T01:23:24;99160.97;;;4.74;82.51
75231;BME280;63814;50.118;8.714;2022-11-21T01:25:52;99162.72;;;4.73;82.83
75231;BME280;63814;50.118;8.714;2022-11-21T01:28:19;99161.84;;;4.74;82.60
75231;BME280;63814;50.118;8.714;2022-11-21T01:30:45;99167.91;;;4.73;83.07
75231;BME280;63814;50.118;8.714;2022-11-21T01:33:12;99168.94;;;4.71;82.43
75231;BME280;63814;50.118;8.714;2022-11-21T01:35:38;99154.25;;;4.70;82.86
75231;BME280;63814;50.118;8.714;2022-11-21T01:38:04;99165.50;;;4.70;82.53
75231;BME280;63814;50.118;8.714;2022-11-21T01:40:36;99155.19;;;4.69;83.50
75231;BME280;63814;50.118;8.714;2022-11-21T01:43:11;99158.44;;;4.72;83.57
75231;BME280;63814;50.118;8.714;2022-11-21T01:46:03;99142.44;;;4.82;82.36
75231;BME280;63814;50.118;8.714;2022-11-21T01:48:33;99139.34;;;4.73;83.01
75231;BME280;63814;50.118;8.714;2022-11-21T01:51:06;99123.94;;;4.70;82.39
75231;BME280;63814;50.118;8.714;2022-11-21T01:53:37;99133.56;;;4.68;83.36
75231;BME280;63814;50.118;8.714;2022-11-21T01:56:04;99135.25;;;4.69;83.49
75231;BME280;63814;50.118;8.714;2022-11-21T01:58:33;99137.53;;;4.75;83.53
75231;BME280;63814;50.118;8.714;2022-11-21T02:01:01;99115.91;;;4.75;83.18
75231;BME280;63814;50.118;8.714;2022-11-21T02:03:30;99137.91;;;4.85;83.04
75231;BME280;63814;50.118;8.714;2022-11-21T02:05:59;99147.28;;;4.88;84.10
75231;BME280;63814;50.118;8.714;2022-11-21T02:08:26;99146.16;;;4.94;83.74
75231;BME280;63814;50.118;8.714;2022-11-21T02:11:01;99144.38;;;4.94;84.12
75231;BME280;63814;50.118;8.714;2022-11-21T02:13:33;99139.97;;;4.96;83.90
75231;BME280;63814;50.118;8.714;2022-11-21T02:15:59;99133.53;;;4.86;84.18
75231;BME280;63814;50.118;8.714;2022-11-21T02:18:27;99128.16;;;4.73;84.52
75231;BME280;63814;50.118;8.714;2022-11-21T02:20:59;99141.88;;;4.93;83.99
75231;BME280;63814;50.118;8.714;2022-11-21T02:23:34;99146.97;;;4.94;84.38
75231;BME280;63814;50.118;8.714;2022-11-21T02:26:04;99145.78;;;4.84;84.06
75231;BME280;63814;50.118;8.714;2022-11-21T02:28:30;99147.44;;;4.85;84.29
75231;BME280;63814;50.118;8.714;2022-11-21T02:30:57;99150.78;;;4.87;84.22
75231;BME280;63814;50.118;8.714;2022-11-21T02:33:24;99152.66;;;4.85;84.38
75231;BME280;63814;50.118;8.714;2022-11-21T02:35:57;99155.31;;;4.83;84.09
75231;BME280;63814;50.118;8.714;2022-11-21T02:38:26;99157.00;;;4.84;84.40
75231;BME280;63814;50.118;8.714;2022-11-21T02:40:59;99162.72;;;4.91;84.14
75231;BME280;63814;50.118;8.714;2022-11-21T02:43:32;99157.91;;;4.83;84.33
75231;BME280;63814;50.118;8.714;2022-11-21T02:46:02;99166.88;;;4.77;84.88
75231;BME280;63814;50.118;8.714;2022-11-21T02:48:28;99165.88;;;4.80;84.38
75231;BME280;63814;50.118;8.714;2022-11-21T02:50:55;99170.91;;;4.83;83.85
75231;BME280;63814;50.118;8.714;2022-11-21T02:53:21;99176.09;;;4.83;83.85
75231;BME280;63814;50.118;8.714;2022-11-21T02:55:48;99178.00;;;4.80;84.62
75231;BME280;63814;50.118;8.714;2022-11-21T02:58:14;99179.69;;;4.63;84.82
75231;BME280;63814;50.118;8.714;2022-11-21T03:00:43;99185.50;;;4.86;84.17
75231;BME280;63814;50.118;8.714;2022-11-21T03:03:10;99179.38;;;4.87;83.66
75231;BME280;63814;50.118;8.714;2022-11-21T03:05:38;99182.06;;;4.85;83.24
75231;BME280;63814;50.118;8.714;2022-11-21T03:08:05;99174.97;;;4.89;83.18
75231;BME280;63814;50.118;8.714;2022-11-21T03:10:31;99175.09;;;4.86;82.81
75231;BME280;63814;50.118;8.714;2022-11-21T03:12:58;99175.97;;;4.86;83.39
75231;BME280;63814;50.118;8.714;2022-11-21T03:15:27;99193.97;;;4.89;83.47
75231;BME280;63814;50.118;8.714;2022-11-21T03:17:55;99181.53;;;4.96;82.66
75231;BME280;63814;50.118;8.714;2022-11-21T03:20:21;99190.44;;;4.90;83.31
75231;BME280;63814;50.118;8.714;2022-11-21T03:22:48;99188.47;;;4.96;82.78
75231;BME280;63814;50.118;8.714;2022-11-21T03:25:15;99180.16;;;4.89;82.56
75231;BME280;63814;50.118;8.714;2022-11-21T03:27:41;99182.59;;;4.92;82.05
75231;BME280;63814;50.118;8.714;2022-11-21T03:30:09;99175.97;;;4.86;82.48
75231;BME280;63814;50.118;8.714;2022-11-21T03:32:35;99178.31;;;4.91;82.14
75231;BME280;63814;50.118;8.714;2022-11-21T03:35:04;99187.78;;;4.92;82.26
75231;BME280;63814;50.118;8.714;2022-11-21T03:37:31;99188.09;;;4.86;82.71
75231;BME280;63814;50.118;8.714;2022-11-21T03:39:57;99186.34;;;4.86;82.80
75231;BME280;63814;50.118;8.714;2022-11-21T03:42:24;99186.19;;;4.89;82.06
75231;BME280;63814;50.118;8.714;2022-11-21T03:44:50;99190.81;;;5.00;82.04
75231;BME280;63814;50.118;8.714;2022-11-21T03:47:17;99185.00;;;4.95;81.13
75231;BME280;63814;50.118;8.714;2022-11-21T03:49:43;99185.19;;;4.92;81.35
75231;BME280;63814;50.118;8.714;2022-11-21T03:52:11;99196.31;;;4.94;81.74
75231;BME280;63814;50.118;8.714;2022-11-21T03:54:37;99196.56;;;4.89;81.63
75231;BME280;63814;50.118;8.714;2022-11-21T03:57:04;99185.34;;;4.89;81.46
75231;BME280;63814;50.118;8.714;2022-11-21T03:59:30;99190.38;;;4.92;82.14
75231;BME280;63814;50.118;8.714;2022-11-21T04:01:57;99187.41;;;5.00;81.14
75231;BME280;63814;50.118;8.714;2022-11-21T04:04:23;99184.69;;;5.01;81.57
75231;BME280;63814;50.118;8.714;2022-11-21T04:06:49;99185.63;;;5.00;82.28
75231;BME280;63814;50.118;8.714;2022-11-21T04:09:17;99172.50;;;5.03;81.46
75231;BME280;63814;50.118;8.714;2022-11-21T04:11:44;99172.81;;;4.97;81.14
75231;BME280;63814;50.118;8.714;2022-11-21T04:14:10;99186.91;;;5.09;80.75
75231;BME280;63814;50.118;8.714;2022-11-21T04:16:37;99126.22;;;4.76;81.34
75231;BME280;63814;50.118;8.714;2022-11-21T04:19:03;99192.47;;;5.19;81.19
75231;BME280;63814;50.118;8.714;2022-11-21T04:21:29;99199.66;;;5.14;81.08
75231;BME280;63814;50.118;8.714;2022-11-21T04:23:56;99184.25;;;5.11;81.44
75231;BME280;63814;50.118;8.714;2022-11-21T04:26:24;99198.06;;;5.11;81.10
75231;BME280;63814;50.118;8.714;2022-11-21T04:28:50;99197.69;;;5.19;80.33
75231;BME280;63814;50.118;8.714;2022-11-21T04:31:17;99187.13;;;5.22;80.13
75231;BME280;63814;50.118;8.714;2022-11-21T04:33:43;99197.38;;;5.25;80.60
75231;BME280;63814;50.118;8.714;2022-11-21T04:36:10;99199.53;;;5.33;80.27
75231;BME280;63814;50.118;8.714;2022-11-21T04:38:36;99192.00;;;5.28;80.10
75231;BME280;63814;50.118;8.714;2022-11-21T04:41:03;99203.00;;;5.34;80.15
75231;BME280;63814;50.118;8.714;2022-11-21T04:43:31;99193.59;;;5.31;79.70
75231;BME280;63814;50.118;8.714;2022-11-21T04:45:57;99208.19;;;5.34;79.80
75231;BME280;63814;50.118;8.714;2022-11-21T04:48:24;99200.22;;;5.37;80.33
75231;BME280;63814;50.118;8.714;2022-11-21T04:50:50;99199.66;;;5.31;80.35
75231;BME280;63814;50.118;8.714;2022-11-21T04:53:17;99197.94;;;5.30;80.09
75231;BME280;63814;50.118;8.714;2022-11-21T04:55:43;99205.91;;;5.27;79.49
75231;BME280;63814;50.118;8.714;2022-11-21T04:58:10;99201.31;;;5.32;79.87
75231;BME280;63814;50.118;8.714;2022-11-21T05:00:38;99201.91;;;5.38;79.55
75231;BME280;63814;50.118;8.714;2022-11-21T05:03:05;99208.94;;;5.36;79.15
75231;BME280;63814;50.118;8.714;2022-11-21T05:05:32;99204.84;;;5.31;79.75
75231;BME280;63814;50.118;8.714;2022-11-21T05:07:58;99199.03;;;5.26;80.39
75231;BME280;63814;50.118;8.714;2022-11-21T05:10:25;99201.47;;;5.29;80.24
75231;BME280;63814;50.118;8.714;2022-11-21T05:12:56;99215.63;;;5.24;80.64
75231;BME280;63814;50.118;8.714;2022-11-21T05:15:41;99192.81;;;5.13;80.89
75231;BME280;63814;50.118;8.714;2022-11-21T05:18:07;99207.22;;;5.18;79.86
75231;BME280;63814;50.118;8.714;2022-11-21T05:20:34;99206.53;;;5.15;80.39
75231;BME280;63814;50.118;8.714;2022-11-21T05:23:00;99206.78;;;5.10;80.87
75231;BME280;63814;50.118;8.714;2022-11-21T05:25:27;99205.88;;;5.11;81.23
75231;BME280;63814;50.118;8.714;2022-11-21T05:27:54;99207.78;;;5.08;81.17
75231;BME280;63814;50.118;8.714;2022-11-21T05:30:21;99212.91;;;5.09;81.09
75231;BME280;63814;50.118;8.714;2022-11-21T05:32:49;99206.09;;;5.07;81.31
75231;BME280;63814;50.118;8.714;2022-11-21T05:35:15;99167.53;;;4.81;82.09
75231;BME280;63814;50.118;8.714;2022-11-21T05:37:42;99204.34;;;5.07;82.19
75231;BME280;63814;50.118;8.714;2022-11-21T05:40:09;99202.75;;;5.04;82.33
75231;BME280;63814;50.118;8.714;2022-11-21T05:42:38;99187.59;;;4.95;82.56
75231;BME280;63814;50.118;8.714;2022-11-21T05:45:22;99208.41;;;4.95;82.33
75231;BME280;63814;50.118;8.714;2022-11-21T05:47:50;99190.38;;;4.92;83.24
75231;BME280;63814;50.118;8.714;2022-11-21T05:50:17;99187.34;;;4.84;83.04
75231;BME280;63814;50.118;8.714;2022-11-21T05:52:43;99201.06;;;4.86;83.05
75231;BME280;63814;50.118;8.714;2022-11-21T05:55:09;99203.59;;;4.87;82.93
75231;BME280;63814;50.118;8.714;2022-11-21T05:57:36;99206.13;;;4.89;82.68
75231;BME280;63814;50.118;8.714;2022-11-21T06:00:03;99212.16;;;4.89;82.90
75231;BME280;63814;50.118;8.714;2022-11-21T06:02:30;99201.25;;;4.83;83.14
75231;BME280;63814;50.118;8.714;2022-11-21T06:05:15;99211.47;;;4.86;83.19
75231;BME280;63814;50.118;8.714;2022-11-21T06:07:42;99207.81;;;4.90;83.89
75231;BME280;63814;50.118;8.714;2022-11-21T06:10:08;99203.66;;;4.86;84.30
75231;BME280;63814;50.118;8.714;2022-11-21T06:12:35;99208.13;;;4.84;84.77
75231;BME280;63814;50.118;8.714;2022-11-21T06:15:01;99209.47;;;4.73;85.02
75231;BME280;63814;50.118;8.714;2022-11-21T06:17:28;99207.81;;;4.72;85.15
75231;BME280;63814;50.118;8.714;2022-11-21T06:19:54;99203.69;;;4.68;85.43
75231;BME280;63814;50.118;8.714;2022-11-21T06:22:22;99199.41;;;4.67;86.10
75231;BME280;63814;50.118;8.714;2022-11-21T06:24:48;99199.41;;;4.67;85.13
75231;BME280;63814;50.118;8.714;2022-11-21T06:27:15;99208.88;;;4.68;85.15
75231;BME280;63814;50.118;8.714;2022-11-21T06:29:41;99212.00;;;4.57;85.88
75231;BME280;63814;50.118;8.714;2022-11-21T06:32:08;99211.38;;;4.52;84.99
75231;BME280;63814;50.118;8.714;2022-11-21T06:34:35;99214.97;;;4.49;85.49
75231;BME280;63814;50.118;8.714;2022-11-21T06:37:02;99216.66;;;4.50;85.65
75231;BME280;63814;50.118;8.714;2022-11-21T06:39:29;99210.53;;;4.52;85.73
75231;BME280;63814;50.118;8.714;2022-11-21T06:41:56;99210.69;;;4.48;85.33
75231;BME280;63814;50.118;8.714;2022-11-21T06:44:23;99215.72;;;4.52;84.65
75231;BME280;63814;50.118;8.714;2022-11-21T06:46:49;99210.22;;;4.40;86.14
75231;BME280;63814;50.118;8.714;2022-11-21T06:49:17;99217.09;;;4.41;85.19
75231;BME280;63814;50.118;8.714;2022-11-21T06:51:43;99213.75;;;4.39;85.43
75231;BME280;63814;50.118;8.714;2022-11-21T06:54:10;99219.63;;;4.43;84.87
75231;BME280;63814;50.118;8.714;2022-11-21T06:56:38;99227.31;;;4.44;85.18
75231;BME280;63814;50.118;8.714;2022-11-21T06:59:04;99225.66;;;4.43;85.19
75231;BME280;63814;50.118;8.714;2022-11-21T07:01:31;99235.91;;;4.46;85.80
75231;BME280;63814;50.118;8.714;2022-11-21T07:03:57;99241.84;;;4.48;85.00
75231;BME280;63814;50.118;8.714;2022-11-21T07:06:24;99230.41;;;4.53;84.84
75231;BME280;63814;50.118;8.714;2022-11-21T07:08:52;99243.94;;;4.59;84.54
75231;BME280;63814;50.118;8.714;2022-11-21T07:11:20;99239.44;;;4.63;83.89
75231;BME280;63814;50.118;8.714;2022-11-21T07:13:47;99231.63;;;4.63;84.62
75231;BME280;63814;50.118;8.714;2022-11-21T07:16:13;99227.59;;;4.57;84.74
75231;BME280;63814;50.118;8.714;2022-11-21T07:18:40;99222.53;;;4.54;84.84
75231;BME280;63814;50.118;8.714;2022-11-21T07:21:07;99240.13;;;4.67;84.75
75231;BME280;63814;50.118;8.714;2022-11-21T07:23:34;99237.53;;;4.67;84.45
75231;BME280;63814;50.118;8.714;2022-11-21T07:26:01;99241.72;;;4.69;84.67
75231;BME280;63814;50.118;8.714;2022-11-21T07:28:30;99240.88;;;4.69;84.70
75231;BME280;63814;50.118;8.714;2022-11-21T07:31:00;99248.38;;;4.75;84.12
75231;BME280;63814;50.118;8.714;2022-11-21T07:33:27;99235.59;;;4.70;83.44
75231;BME280;63814;50.118;8.714;2022-11-21T07:35:54;99251.13;;;4.72;84.57
75231;BME280;63814;50.118;8.714;2022-11-21T07:38:20;99258.38;;;4.83;83.81
75231;BME280;63814;50.118;8.714;2022-11-21T07:40:47;99256.72;;;4.82;84.21
75231;BME280;63814;50.118;8.714;2022-11-21T07:43:13;99260.06;;;4.84;83.45
75231;BME280;63814;50.118;8.714;2022-11-21T07:45:40;99260.53;;;4.92;84.04
75231;BME280;63814;50.118;8.714;2022-11-21T07:48:09;99256.25;;;4.91;84.37
75231;BME280;63814;50.118;8.714;2022-11-21T07:50:36;99261.56;;;4.88;84.91
75231;BME280;63814;50.118;8.714;2022-11-21T07:53:04;99264.56;;;4.80;84.63
75231;BME280;63814;50.118;8.714;2022-11-21T07:55:31;99258.22;;;4.86;85.25
75231;BME280;63814;50.118;8.714;2022-11-21T07:57:58;99260.59;;;4.90;85.25
75231;BME280;63814;50.118;8.714;2022-11-21T08:00:25;99259.59;;;4.93;85.00
75231;BME280;63814;50.118;8.714;2022-11-21T08:02:52;99260.84;;;5.03;84.93
75231;BME280;63814;50.118;8.714;2022-11-21T08:05:20;99263.25;;;5.07;83.20
75231;BME280;63814;50.118;8.714;2022-11-21T08:07:47;99260.50;;;5.10;83.32
75231;BME280;63814;50.118;8.714;2022-11-21T08:10:15;99263.19;;;5.08;83.57
75231;BME280;63814;50.118;8.714;2022-11-21T08:12:41;99257.91;;;5.10;82.95
75231;BME280;63814;50.118;8.714;2022-11-21T08:15:09;99261.13;;;5.15;83.09
75231;BME280;63814;50.118;8.714;2022-11-21T08:17:35;99251.47;;;5.17;83.49
75231;BME280;63814;50.118;8.714;2022-11-21T08:20:03;99256.38;;;5.23;82.15
75231;BME280;63814;50.118;8.714;2022-11-21T08:22:31;99252.53;;;5.30;81.31
75231;BME280;63814;50.118;8.714;2022-11-21T08:24:57;99253.00;;;5.21;82.29
75231;BME280;63814;50.118;8.714;2022-11-21T08:27:24;99257.22;;;5.24;82.47
75231;BME280;63814;50.118;8.714;2022-11-21T08:29:50;99258.81;;;5.26;82.59
75231;BME280;63814;50.118;8.714;2022-11-21T08:32:17;99242.44;;;5.24;82.00
75231;BME280;63814;50.118;8.714;2022-11-21T08:34:43;99249.63;;;5.37;81.55
75231;BME280;63814;50.118;8.714;2022-11-21T08:37:10;99253.44;;;5.47;80.92
75231;BME280;63814;50.118;8.714;2022-11-21T08:39:37;99241.56;;;5.59;80.58
75231;BME280;63814;50.118;8.714;2022-11-21T08:42:04;99244.91;;;5.61;80.67
75231;BME280;63814;50.118;8.714;2022-11-21T08:44:32;99242.38;;;5.59;81.29
75231;BME280;63814;50.118;8.714;2022-11-21T08:46:59;99242.06;;;5.66;80.80
75231;BME280;63814;50.118;8.714;2022-11-21T08:49:26;99234.66;;;5.74;79.96
75231;BME280;63814;50.118;8.714;2022-11-21T08:51:53;99240.06;;;5.87;79.96
75231;BME280;63814;50.118;8.714;2022-11-21T08:54:21;99233.88;;;5.90;79.25
75231;BME280;63814;50.118;8.714;2022-11-21T08:56:49;99238.72;;;5.96;79.06
75231;BME280;63814;50.118;8.714;2022-11-21T08:59:16;99234.41;;;6.12;78.10
75231;BME280;63814;50.118;8.714;2022-11-21T09:01:43;99222.88;;;6.17;77.64
75231;BME280;63814;50.118;8.714;2022-11-21T09:04:10;99224.56;;;6.18;78.32
75231;BME280;63814;50.118;8.714;2022-11-21T09:06:37;99217.84;;;6.13;78.45
75231;BME280;63814;50.118;8.714;2022-11-21T09:09:04;99220.28;;;6.17;77.56
75231;BME280;63814;50.118;8.714;2022-11-21T09:11:31;99224.66;;;6.16;78.10
75231;BME280;63814;50.118;8.714;2022-11-21T09:13:59;99228.00;;;6.02;77.70
75231;BME280;63814;50.118;8.714;2022-11-21T09:16:43;99234.81;;;6.05;77.63
75231;BME280;63814;50.118;8.714;2022-11-21T09:19:28;99228.50;;;5.93;79.14
75231;BME280;63814;50.118;8.714;2022-11-21T09:21:54;99232.50;;;5.98;79.01
75231;BME280;63814;50.118;8.714;2022-11-21T09:24:21;99226.41;;;5.83;79.57
75231;BME280;63814;50.118;8.714;2022-11-21T09:26:47;99232.84;;;5.76;82.64
75231;BME280;63814;50.118;8.714;2022-11-21T09:29:15;99234.09;;;5.69;82.26
75231;BME280;63814;50.118;8.714;2022-11-21T09:31:42;99238.19;;;5.73;81.02
75231;BME280;63814;50.118;8.714;2022-11-21T09:34:09;99230.31;;;5.75;80.21
75231;BME280;63814;50.118;8.714;2022-11-21T09:36:36;99226.81;;;5.92;80.97
75231;BME280;63814;50.118;8.714;2022-11-21T09:39:03;99230.84;;;5.97;79.32
75231;BME280;63814;50.118;8.714;2022-11-21T09:41:36;99227.84;;;6.05;78.02
75231;BME280;63814;50.118;8.714;2022-11-21T09:44:29;99225.94;;;6.09;77.94
75231;BME280;63814;50.118;8.714;2022-11-21T09:47:04;99219.94;;;6.23;77.19
75231;BME280;63814;50.118;8.714;2022-11-21T09:49:40;99226.31;;;6.33;76.35
75231;BME280;63814;50.118;8.714;2022-11-21T09:52:10;99227.00;;;6.37;76.25
75231;BME280;63814;50.118;8.714;2022-11-21T09:54:42;99221.66;;;6.54;76.94
75231;BME280;63814;50.118;8.714;2022-11-21T09:57:14;99224.91;;;6.58;75.40
75231;BME280;63814;50.118;8.714;2022-11-21T09:59:44;99215.56;;;6.39;75.18
75231;BME280;63814;50.118;8.714;2022-11-21T10:02:14;99211.53;;;6.34;75.32
75231;BME280;63814;50.118;8.714;2022-11-21T10:04:41;99211.38;;;6.21;75.60
75231;BME280;63814;50.118;8.714;2022-11-21T10:07:12;99212.66;;;6.30;75.79
75231;BME280;63814;50.118;8.714;2022-11-21T10:09:49;99209.59;;;6.37;74.64
75231;BME280;63814;50.118;8.714;2022-11-21T10:12:26;99200.13;;;6.67;74.78
75231;BME280;63814;50.118;8.714;2022-11-21T10:15:14;99202.84;;;6.80;74.09
75231;BME280;63814;50.118;8.714;2022-11-21T10:17:51;99203.56;;;6.82;73.62
75231;BME280;63814;50.118;8.714;2022-11-21T10:20:33;99193.53;;;6.76;73.76
75231;BME280;63814;50.118;8.714;2022-11-21T10:23:32;99186.47;;;6.78;73.61
75231;BME280;63814;50.118;8.714;2022-11-21T10:26:13;99187.56;;;6.74;74.22
75231;BME280;63814;50.118;8.714;2022-11-21T10:28:47;99185.72;;;6.76;73.91
75231;BME280;63814;50.118;8.714;2022-11-21T10:31:18;99175.34;;;7.05;74.01
75231;BME280;63814;50.118;8.714;2022-11-21T10:33:45;99173.66;;;7.33;72.03
75231;BME280;63814;50.118;8.714;2022-11-21T10:36:21;99163.75;;;7.53;69.67
75231;BME280;63814;50.118;8.714;2022-11-21T10:38:51;99168.72;;;7.28;70.71
75231;BME280;63814;50.118;8.714;2022-11-21T10:41:26;99159.16;;;7.71;69.00
75231;BME280;63814;50.118;8.714;2022-11-21T10:44:04;99158.75;;;8.59;65.94
75231;BME280;63814;50.118;8.714;2022-11-21T10:46:57;99137.00;;;9.24;62.04
75231;BME280;63814;50.118;8.714;2022-11-21T10:49:27;99147.31;;;9.64;60.36
75231;BME280;63814;50.118;8.714;2022-11-21T10:51:59;99139.34;;;8.64;63.76
75231;BME280;63814;50.118;8.714;2022-11-21T10:54:30;99149.97;;;8.20;66.48
75231;BME280;63814;50.118;8.714;2022-11-21T10:57:05;99149.53;;;7.86;66.55
75231;BME280;63814;50.118;8.714;2022-11-21T10:59:33;99143.63;;;7.69;67.00
75231;BME280;63814;50.118;8.714;2022-11-21T11:02:09;99138.72;;;7.92;66.95
75231;BME280;63814;50.118;8.714;2022-11-21T11:04:46;99139.88;;;8.41;65.32
75231;BME280;63814;50.118;8.714;2022-11-21T11:07:20;99124.56;;;9.27;62.59
75231;BME280;63814;50.118;8.714;2022-11-21T11:09:47;99125.22;;;9.55;60.39
75231;BME280;63814;50.118;8.714;2022-11-21T11:12:27;99102.00;;;10.71;57.36
75231;BME280;63814;50.118;8.714;2022-11-21T11:15:18;99114.84;;;9.91;57.77
75231;BME280;63814;50.118;8.714;2022-11-21T11:17:51;99114.75;;;9.55;60.25
75231;BME280;63814;50.118;8.714;2022-11-21T11:20:35;99104.34;;;9.43;59.71
75231;BME280;63814;50.118;8.714;2022-11-21T11:23:15;99095.13;;;8.86;61.23
75231;BME280;63814;50.118;8.714;2022-11-21T11:25:45;99089.09;;;9.85;58.85
75231;BME280;63814;50.118;8.714;2022-11-21T11:28:13;99090.34;;;9.18;60.52
75231;BME280;63814;50.118;8.714;2022-11-21T11:30:39;99079.19;;;8.90;61.57
75231;BME280;63814;50.118;8.714;2022-11-21T11:33:32;99087.47;;;8.57;62.46
75231;BME280;63814;50.118;8.714;2022-11-21T11:36:09;99080.69;;;8.14;63.96
75231;BME280;63814;50.118;8.714;2022-11-21T11:38:36;99083.59;;;7.97;63.53
75231;BME280;63814;50.118;8.714;2022-11-21T11:41:18;99078.91;;;7.74;65.58
75231;BME280;63814;50.118;8.714;2022-11-21T11:43:57;99081.00;;;7.69;65.23
75231;BME280;63814;50.118;8.714;2022-11-21T11:46:54;99068.78;;;7.42;66.21
75231;BME280;63814;50.118;8.714;2022-11-21T11:49:45;99076.78;;;7.39;65.90
75231;BME280;63814;50.118;8.714;2022-11-21T11:52:32;99061.97;;;7.40;67.01
75231;BME280;63814;50.118;8.714;2022-11-21T11:55:05;99062.06;;;7.38;66.60
75231;BME280;63814;50.118;8.714;2022-11-21T11:57:34;99062.53;;;7.45;66.28
75231;BME280;63814;50.118;8.714;2022-11-21T12:00:06;99058.94;;;7.33;66.28
75231;BME280;63814;50.118;8.714;2022-11-21T12:02:48;99049.84;;;7.53;66.55
75231;BME280;63814;50.118;8.714;2022-11-21T12:05:22;99049.97;;;7.64;65.61
75231;BME280;63814;50.118;8.714;2022-11-21T12:08:02;99046.72;;;7.61;65.03
75231;BME280;63814;50.118;8.714;2022-11-21T12:10:33;99045.25;;;7.57;65.08
75231;BME280;63814;50.118;8.714;2022-11-21T12:13:23;99050.16;;;7.89;63.11
75231;BME280;63814;50.118;8.714;2022-11-21T12:15:52;99037.88;;;8.04;62.45
75231;BME280;63814;50.118;8.714;2022-11-21T12:18:25;99029.41;;;8.13;62.38
75231;BME280;63814;50.118;8.714;2022-11-21T12:21:02;99021.59;;;8.13;62.49
75231;BME280;63814;50.118;8.714;2022-11-21T12:23:31;99016.81;;;8.33;61.77
75231;BME280;63814;50.118;8.714;2022-11-21T12:26:08;99005.53;;;8.58;60.26
75231;BME280;63814;50.118;8.714;2022-11-21T12:28:45;99002.00;;;9.59;58.33
75231;BME280;63814;50.118;8.714;2022-11-21T12:31:22;98976.69;;;11.53;52.73
75231;BME280;63814;50.118;8.714;2022-11-21T12:34:00;98969.34;;;12.32;49.53
75231;BME280;63814;50.118;8.714;2022-11-21T12:36:34;98969.50;;;12.09;50.43
75231;BME280;63814;50.118;8.714;2022-11-21T12:39:29;98964.34;;;11.32;52.31
75231;BME280;63814;50.118;8.714;2022-11-21T12:42:06;98977.34;;;10.67;52.93
75231;BME280;63814;50.118;8.714;2022-11-21T12:45:03;98960.50;;;10.13;54.19
75231;BME280;63814;50.118;8.714;2022-11-21T12:47:49;98953.31;;;11.50;52.82
75231;BME280;63814;50.118;8.714;2022-11-21T12:50:50;98956.69;;;12.47;48.38
75231;BME280;63814;50.118;8.714;2022-11-21T12:53:45;98960.59;;;11.79;50.48
75231;BME280;63814;50.118;8.714;2022-11-21T12:56:42;98966.16;;;11.65;50.18
75231;BME280;63814;50.118;8.714;2022-11-21T12:59:13;98961.91;;;11.20;50.87
75231;BME280;63814;50.118;8.714;2022-11-21T13:01:44;98952.44;;;11.61;49.72
75231;BME280;63814;50.118;8.714;2022-11-21T13:04:17;98951.50;;;12.67;47.94
75231;BME280;63814;50.118;8.714;2022-11-21T13:06:46;98925.69;;;13.21;46.11
75231;BME280;63814;50.118;8.714;2022-11-21T13:09:17;98930.63;;;14.13;43.62
75231;BME280;63814;50.118;8.714;2022-11-21T13:11:50;98932.78;;;13.70;44.60
75231;BME280;63814;50.118;8.714;2022-11-21T13:14:30;98932.00;;;14.08;43.46
75231;BME280;63814;50.118;8.714;2022-11-21T13:17:05;98926.41;;;13.23;44.67
75231;BME280;63814;50.118;8.714;2022-11-21T13:19:40;98922.88;;;12.74;46.65
75231;BME280;63814;50.118;8.714;2022-11-21T13:22:50;98921.25;;;13.02;46.01
75231;BME280;63814;50.118;8.714;2022-11-21T13:25:41;98918.19;;;12.77;46.03